createdAt,value
2023-04-14T00:02:08.314Z,0.38
2023-04-14T00:04:35.896Z,0.43
2023-04-14T00:07:02.795Z,0.43
2023-04-14T00:09:30.132Z,0.50
2023-04-14T00:11:57.457Z,0.40
2023-04-14T00:14:24.387Z,0.40
2023-04-14T00:16:51.283Z,0.50
2023-04-14T00:19:18.127Z,0.60
2023-04-14T00:21:44.895Z,0.50
2023-04-14T00:24:11.657Z,0.50
2023-04-14T00:26:38.412Z,0.40
2023-04-14T00:29:05.357Z,0.50
2023-04-14T00:31:32.726Z,0.50
2023-04-14T00:33:59.575Z,0.50
2023-04-14T00:36:26.927Z,0.50
2023-04-14T00:38:53.674Z,0.50
2023-04-14T00:41:20.402Z,0.50
2023-04-14T00:43:47.162Z,0.50
2023-04-14T00:46:17.141Z,0.57
2023-04-14T00:48:44.343Z,0.70
2023-04-14T00:51:11.821Z,0.50
2023-04-14T00:53:39.854Z,0.52
2023-04-14T00:56:07.427Z,0.40
2023-04-14T00:58:34.717Z,0.63
2023-04-14T01:01:01.813Z,0.50
2023-04-14T01:03:28.704Z,0.40
2023-04-14T01:05:56.465Z,0.43
2023-04-14T01:08:23.826Z,0.60
2023-04-14T01:11:13.645Z,0.55
2023-04-14T01:13:50.303Z,0.52
2023-04-14T01:16:23.147Z,0.50
2023-04-14T01:18:59.133Z,0.50
2023-04-14T01:21:31.646Z,0.60
2023-04-14T01:24:16.705Z,0.50
2023-04-14T01:26:45.418Z,0.50
2023-04-14T01:29:30.483Z,0.60
2023-04-14T01:32:06.545Z,0.57
2023-04-14T01:34:55.996Z,0.55
2023-04-14T01:37:36.349Z,0.50
2023-04-14T01:40:11.368Z,0.60
2023-04-14T01:42:42.878Z,0.70
2023-04-14T01:45:19.437Z,0.57
2023-04-14T01:47:47.449Z,0.60
2023-04-14T01:50:16.329Z,0.50
2023-04-14T01:52:47.937Z,0.50
2023-04-14T01:55:17.410Z,0.57
2023-04-14T01:57:46.757Z,0.60
2023-04-14T02:00:16.571Z,0.50
2023-04-14T02:02:46.604Z,0.60
2023-04-14T02:05:15.669Z,0.52
2023-04-14T02:07:42.845Z,0.45
2023-04-14T02:10:11.122Z,0.40
2023-04-14T02:12:41.383Z,0.60
2023-04-14T02:15:13.499Z,0.40
2023-04-14T02:17:41.711Z,0.55
2023-04-14T02:20:11.049Z,0.50
2023-04-14T02:22:37.821Z,0.60
2023-04-14T02:25:05.381Z,0.52
2023-04-14T02:27:56.487Z,0.60
2023-04-14T02:30:33.842Z,0.60
2023-04-14T02:33:05.792Z,0.50
2023-04-14T02:35:39.852Z,0.60
2023-04-14T02:38:13.858Z,0.60
2023-04-14T02:40:42.354Z,0.52
2023-04-14T02:43:18.593Z,0.60
2023-04-14T02:45:49.151Z,0.60
2023-04-14T02:48:17.981Z,0.57
2023-04-14T02:50:48.843Z,0.57
2023-04-14T02:53:20.224Z,0.70
2023-04-14T02:55:49.146Z,0.60
2023-04-14T02:58:16.573Z,0.55
2023-04-14T03:00:44.603Z,0.50
2023-04-14T03:03:12.950Z,0.50
2023-04-14T03:05:43.693Z,0.50
2023-04-14T03:08:16.022Z,0.50
2023-04-14T03:10:47.757Z,0.50
2023-04-14T03:13:16.746Z,0.57
2023-04-14T03:15:45.696Z,0.40
2023-04-14T03:18:14.185Z,0.50
2023-04-14T03:20:43.436Z,0.50
2023-04-14T03:23:12.441Z,0.50
2023-04-14T03:25:40.504Z,0.70
2023-04-14T03:28:12.246Z,0.50
2023-04-14T03:30:51.314Z,0.60
2023-04-14T03:33:23.370Z,0.50
2023-04-14T03:35:52.835Z,0.55
2023-04-14T03:38:21.510Z,0.68
2023-04-14T03:40:49.187Z,0.60
2023-04-14T03:43:22.547Z,0.60
2023-04-14T03:45:51.666Z,0.63
2023-04-14T03:48:20.402Z,0.60
2023-04-14T03:50:49.547Z,0.60
2023-04-14T03:53:18.894Z,0.70
2023-04-14T03:55:47.946Z,0.50
2023-04-14T03:58:17.181Z,0.50
2023-04-14T04:00:45.408Z,0.60
2023-04-14T04:03:14.845Z,0.70
2023-04-14T04:05:43.076Z,0.60
2023-04-14T04:08:11.310Z,0.63
2023-04-14T04:10:39.011Z,0.60
2023-04-14T04:13:13.157Z,0.50
2023-04-14T04:15:42.058Z,0.50
2023-04-14T04:18:10.807Z,0.57
2023-04-14T04:20:40.940Z,0.70
2023-04-14T04:23:09.359Z,0.60
2023-04-14T04:25:38.265Z,0.60
2023-04-14T04:28:05.190Z,0.50
2023-04-14T04:30:33.830Z,0.50
2023-04-14T04:33:03.967Z,0.55
2023-04-14T04:35:32.490Z,0.60
2023-04-14T04:38:01.214Z,0.63
2023-04-14T04:40:28.047Z,0.60
2023-04-14T04:42:54.839Z,0.50
2023-04-14T04:45:58.669Z,0.50
2023-04-14T04:48:25.799Z,0.73
2023-04-14T04:50:52.518Z,0.60
2023-04-14T04:53:19.273Z,0.60
2023-04-14T04:55:46.105Z,0.70
2023-04-14T04:58:12.821Z,0.77
2023-04-14T05:00:39.927Z,0.70
2023-04-14T05:03:07.248Z,0.57
2023-04-14T05:05:37.294Z,0.50
2023-04-14T05:08:04.434Z,0.70
2023-04-14T05:10:31.184Z,0.50
2023-04-14T05:12:57.931Z,0.50
2023-04-14T05:15:24.754Z,0.63
2023-04-14T05:17:51.614Z,0.50
2023-04-14T05:20:18.408Z,0.50
2023-04-14T05:22:45.898Z,0.63
2023-04-14T05:25:12.692Z,0.60
2023-04-14T05:27:39.423Z,0.50
2023-04-14T05:30:06.921Z,0.50
2023-04-14T05:32:33.789Z,0.50
2023-04-14T05:35:00.624Z,0.50
2023-04-14T05:37:29.913Z,0.50
2023-04-14T05:39:56.783Z,0.60
2023-04-14T05:42:23.599Z,0.43
2023-04-14T05:44:50.468Z,0.50
2023-04-14T05:47:17.213Z,0.50
2023-04-14T05:49:43.937Z,0.63
2023-04-14T05:52:10.934Z,0.60
2023-04-14T05:54:37.781Z,0.50
2023-04-14T05:57:04.575Z,0.50
2023-04-14T05:59:31.939Z,0.40
2023-04-14T06:01:58.783Z,0.60
2023-04-14T06:04:25.797Z,0.40
2023-04-14T06:06:52.628Z,0.50
2023-04-14T06:09:19.390Z,0.40
2023-04-14T06:11:46.286Z,0.50
2023-04-14T06:14:13.071Z,0.50
2023-04-14T06:16:39.872Z,0.55
2023-04-14T06:19:06.660Z,0.50
2023-04-14T06:21:33.384Z,0.60
2023-04-14T06:24:00.328Z,0.50
2023-04-14T06:26:27.330Z,0.45
2023-04-14T06:28:54.062Z,0.60
2023-04-14T06:31:20.964Z,0.40
2023-04-14T06:33:48.216Z,0.68
2023-04-14T06:36:18.114Z,0.50
2023-04-14T06:38:45.464Z,0.50
2023-04-14T06:41:12.157Z,0.52
2023-04-14T06:43:38.917Z,0.52
2023-04-14T06:46:05.887Z,0.50
2023-04-14T06:48:32.835Z,0.50
2023-04-14T06:50:59.672Z,0.50
2023-04-14T06:53:26.514Z,0.50
2023-04-14T06:55:59.601Z,0.40
2023-04-14T06:58:28.299Z,0.52
2023-04-14T07:00:59.759Z,0.47
2023-04-14T07:03:27.761Z,0.40
2023-04-14T07:05:54.676Z,0.50
2023-04-14T07:08:21.901Z,0.40
2023-04-14T07:10:48.609Z,0.50
2023-04-14T07:13:15.605Z,0.43
2023-04-14T07:15:47.526Z,0.50
2023-04-14T07:18:14.461Z,0.50
2023-04-14T07:20:41.739Z,0.43
2023-04-14T07:23:09.421Z,0.40
2023-04-14T07:25:36.738Z,0.40
2023-04-14T07:28:04.665Z,0.50
2023-04-14T07:30:31.901Z,0.35
2023-04-14T07:32:58.864Z,0.20
2023-04-14T07:35:28.542Z,0.38
2023-04-14T07:37:55.694Z,0.55
2023-04-14T07:40:22.459Z,0.32
2023-04-14T07:42:49.206Z,0.40
2023-04-14T07:45:16.293Z,0.32
2023-04-14T07:47:43.039Z,0.30
2023-04-14T07:50:10.781Z,0.30
2023-04-14T07:52:37.564Z,0.30
2023-04-14T07:55:04.813Z,0.30
2023-04-14T07:57:33.271Z,0.30
2023-04-14T08:00:00.339Z,0.30
2023-04-14T08:02:27.344Z,0.30
2023-04-14T08:04:54.197Z,0.30
2023-04-14T08:07:21.012Z,0.30
2023-04-14T08:09:49.486Z,0.40
2023-04-14T08:12:16.258Z,0.30
2023-04-14T08:14:43.103Z,0.30
2023-04-14T08:17:09.842Z,0.32
2023-04-14T08:19:37.065Z,0.40
2023-04-14T08:22:03.809Z,0.40
2023-04-14T08:24:31.050Z,0.20
2023-04-14T08:26:57.815Z,0.32
2023-04-14T08:29:24.616Z,0.30
2023-04-14T08:31:51.425Z,0.30
2023-04-14T08:34:28.033Z,0.20
2023-04-14T08:36:56.501Z,0.40
2023-04-14T08:39:23.290Z,0.20
2023-04-14T08:41:52.808Z,0.30
2023-04-14T08:44:19.563Z,0.20
2023-04-14T08:46:51.645Z,0.40
2023-04-14T08:49:40.830Z,0.30
2023-04-14T08:52:12.949Z,0.20
2023-04-14T08:54:41.227Z,0.28
2023-04-14T08:57:14.595Z,0.20
2023-04-14T08:59:42.383Z,0.20
2023-04-14T09:02:11.004Z,0.20
2023-04-14T09:04:38.334Z,0.20
2023-04-14T09:07:05.962Z,0.20
2023-04-14T09:09:32.725Z,0.30
2023-04-14T09:12:01.995Z,0.28
2023-04-14T09:14:29.434Z,0.20
2023-04-14T09:16:57.143Z,0.30
2023-04-14T09:19:25.017Z,0.28
2023-04-14T09:21:55.031Z,0.30
2023-04-14T09:24:31.229Z,0.20
2023-04-14T09:27:08.091Z,0.20
2023-04-14T09:29:36.487Z,0.20
2023-04-14T09:32:05.034Z,0.28
2023-04-14T09:34:32.363Z,0.20
2023-04-14T09:37:04.726Z,0.30
2023-04-14T09:39:35.797Z,0.10
2023-04-14T09:42:04.235Z,0.20
2023-04-14T09:44:31.206Z,0.20
2023-04-14T09:47:05.558Z,0.30
2023-04-14T09:49:33.186Z,0.20
2023-04-14T09:52:08.366Z,0.20
2023-04-14T09:54:35.762Z,0.30
2023-04-14T09:57:02.939Z,0.20
2023-04-14T09:59:32.314Z,0.20
2023-04-14T10:02:01.197Z,0.20
2023-04-14T10:04:28.396Z,0.20
2023-04-14T10:06:56.956Z,0.20
2023-04-14T10:09:26.830Z,0.10
2023-04-14T10:12:26.128Z,0.17
2023-04-14T10:14:52.934Z,0.10
2023-04-14T10:17:19.802Z,0.10
2023-04-14T10:19:47.440Z,0.20
2023-04-14T10:22:15.172Z,0.20
2023-04-14T10:24:42.192Z,0.20
2023-04-14T10:27:09.160Z,0.10
2023-04-14T10:29:36.243Z,0.10
2023-04-14T10:32:08.939Z,0.20
2023-04-14T10:34:37.489Z,0.20
2023-04-14T10:37:14.707Z,0.20
2023-04-14T10:39:42.987Z,0.20
2023-04-14T10:42:09.999Z,0.10
2023-04-14T10:44:37.516Z,0.20
2023-04-14T10:47:07.676Z,0.20
2023-04-14T10:49:39.945Z,0.20
2023-04-14T10:52:15.489Z,0.10
2023-04-14T10:55:08.075Z,0.10
2023-04-14T10:57:43.349Z,0.13
2023-04-14T11:00:32.409Z,0.20
2023-04-14T11:03:08.372Z,0.20
2023-04-14T11:05:35.711Z,0.25
2023-04-14T11:08:16.456Z,0.22
2023-04-14T11:10:51.032Z,0.20
2023-04-14T11:13:18.111Z,0.10
2023-04-14T11:15:48.577Z,0.20
2023-04-14T11:18:46.242Z,0.10
2023-04-14T11:21:15.986Z,0.10
2023-04-14T11:23:43.536Z,0.20
2023-04-14T11:26:13.475Z,0.20
2023-04-14T11:28:42.751Z,0.20
2023-04-14T11:31:12.075Z,0.10
2023-04-14T11:33:41.577Z,0.10
2023-04-14T11:36:11.201Z,0.20
2023-04-14T11:38:40.608Z,0.17
2023-04-14T11:41:08.360Z,0.10
2023-04-14T11:43:35.712Z,0.10
2023-04-14T11:46:05.581Z,0.10
2023-04-14T11:48:32.397Z,0.10
2023-04-14T11:51:03.651Z,0.13
2023-04-14T11:53:30.964Z,0.10
2023-04-14T11:55:58.044Z,0.20
2023-04-14T11:58:27.241Z,0.20
2023-04-14T12:00:56.310Z,0.20
2023-04-14T12:03:31.638Z,0.10
2023-04-14T12:06:00.672Z,0.20
2023-04-14T12:08:30.249Z,0.10
2023-04-14T12:10:57.805Z,0.28
2023-04-14T12:13:25.117Z,0.10
2023-04-14T12:15:52.755Z,0.10
2023-04-14T12:21:01.265Z,0.20
2023-04-14T12:23:28.452Z,0.20
2023-04-14T12:25:55.369Z,0.10
2023-04-14T12:28:29.619Z,0.10
2023-04-14T12:31:01.474Z,0.20
2023-04-14T12:33:30.043Z,0.10
2023-04-14T12:36:06.823Z,0.10
2023-04-14T12:38:34.396Z,0.20
2023-04-14T12:41:01.536Z,0.10
2023-04-14T12:43:40.636Z,0.20
2023-04-14T12:46:08.066Z,0.20
2023-04-14T12:48:44.334Z,0.10
2023-04-14T12:51:12.952Z,0.20
2023-04-14T12:53:41.222Z,0.20
2023-04-14T12:56:08.180Z,0.15
2023-04-14T12:58:39.941Z,0.20
2023-04-14T13:01:08.116Z,0.17
2023-04-14T13:03:52.969Z,0.20
2023-04-14T13:06:24.173Z,0.30
2023-04-14T13:08:52.744Z,0.20
2023-04-14T13:11:21.247Z,0.10
2023-04-14T13:13:48.219Z,0.10
2023-04-14T13:16:17.691Z,0.10
2023-04-14T13:18:47.470Z,0.20
2023-04-14T13:21:14.351Z,0.10
2023-04-14T13:23:41.552Z,0.10
2023-04-14T13:26:08.823Z,0.20
2023-04-14T13:28:36.812Z,0.15
2023-04-14T13:31:03.760Z,0.20
2023-04-14T13:33:31.087Z,0.13
2023-04-14T13:35:57.941Z,0.20
2023-04-14T13:38:24.749Z,0.20
2023-04-14T13:40:51.474Z,0.20
2023-04-14T13:43:18.913Z,0.15
2023-04-14T13:45:46.939Z,0.10
2023-04-14T13:48:14.463Z,0.20
2023-04-14T13:50:41.565Z,0.20
2023-04-14T13:53:08.411Z,0.20
2023-04-14T13:55:38.162Z,0.13
2023-04-14T13:58:04.884Z,0.22
2023-04-14T14:00:31.730Z,0.20
2023-04-14T14:02:58.708Z,0.25
2023-04-14T14:05:25.794Z,0.10
2023-04-14T14:07:52.874Z,0.20
2023-04-14T14:10:19.883Z,0.25
2023-04-14T14:12:47.096Z,0.20
2023-04-14T14:15:13.970Z,0.30
2023-04-14T14:17:41.086Z,0.10
2023-04-14T14:20:09.193Z,0.20
2023-04-14T14:22:36.003Z,0.20
2023-04-14T14:25:17.455Z,0.30
2023-04-14T14:27:45.777Z,0.23
2023-04-14T14:30:13.045Z,0.22
2023-04-14T14:32:39.843Z,0.20
2023-04-14T14:35:07.135Z,0.30
2023-04-14T14:37:34.041Z,0.20
2023-04-14T14:40:01.057Z,0.20
2023-04-14T14:42:27.848Z,0.13
2023-04-14T14:44:54.581Z,0.10
2023-04-14T14:47:21.451Z,0.20
2023-04-14T14:49:59.026Z,0.20
2023-04-14T14:52:34.000Z,0.15
2023-04-14T14:55:01.716Z,0.30
2023-04-14T14:57:29.673Z,0.15
2023-04-14T14:59:57.251Z,0.20
2023-04-14T15:02:25.590Z,0.10
2023-04-14T15:04:53.375Z,0.20
2023-04-14T15:07:20.807Z,0.10
2023-04-14T15:09:47.685Z,0.15
2023-04-14T15:12:14.612Z,0.20
2023-04-14T15:14:41.335Z,0.20
2023-04-14T15:17:08.268Z,0.20
2023-04-14T15:19:35.055Z,0.20
2023-04-14T15:22:01.844Z,0.20
2023-04-14T15:24:28.625Z,0.20
2023-04-14T15:26:55.944Z,0.10
2023-04-14T15:29:25.079Z,0.10
2023-04-14T15:31:52.037Z,0.20
2023-04-14T15:34:18.884Z,0.10
2023-04-14T15:36:45.822Z,0.10
2023-04-14T15:39:12.575Z,0.20
2023-04-14T15:41:39.278Z,0.20
2023-04-14T15:44:06.165Z,0.20
2023-04-14T15:46:33.044Z,0.20
2023-04-14T15:48:59.885Z,0.20
2023-04-14T15:51:26.865Z,0.20
2023-04-14T15:53:53.742Z,0.20
2023-04-14T15:56:23.293Z,0.20
2023-04-14T15:58:50.461Z,0.20
2023-04-14T16:01:17.529Z,0.20
2023-04-14T16:03:44.648Z,0.20
2023-04-14T16:06:11.534Z,0.10
2023-04-14T16:08:38.381Z,0.10
2023-04-14T16:11:05.217Z,0.20
2023-04-14T16:13:32.071Z,0.10
2023-04-14T16:15:58.930Z,0.20
2023-04-14T16:18:25.884Z,0.15
2023-04-14T16:20:53.465Z,0.20
2023-04-14T16:23:20.637Z,0.13
2023-04-14T16:25:50.621Z,0.20
2023-04-14T16:28:17.556Z,0.20
2023-04-14T16:30:45.776Z,0.20
2023-04-14T16:33:12.759Z,0.15
2023-04-14T16:35:39.678Z,0.13
2023-04-14T16:38:08.680Z,0.10
2023-04-14T16:40:36.523Z,0.10
2023-04-14T16:43:03.863Z,0.15
2023-04-14T16:45:34.816Z,0.10
2023-04-14T16:48:02.008Z,0.10
2023-04-14T16:50:29.483Z,0.25
2023-04-14T16:52:56.627Z,0.20
2023-04-14T16:55:23.478Z,0.20
2023-04-14T16:57:50.804Z,0.10
2023-04-14T17:00:18.077Z,0.20
2023-04-14T17:02:44.901Z,0.10
2023-04-14T17:05:15.774Z,0.20
2023-04-14T17:07:43.054Z,0.10
2023-04-14T17:10:10.556Z,0.10
2023-04-14T17:12:37.320Z,0.10
2023-04-14T17:15:04.610Z,0.10
2023-04-14T17:17:31.997Z,0.10
2023-04-14T17:19:59.347Z,0.20
2023-04-14T17:22:27.598Z,0.10
2023-04-14T17:24:54.914Z,0.20
2023-04-14T17:27:22.271Z,0.10
2023-04-14T17:29:49.069Z,0.10
2023-04-14T17:32:16.702Z,0.20
2023-04-14T17:34:43.674Z,0.20
2023-04-14T17:37:10.732Z,0.20
2023-04-14T17:39:37.602Z,0.22
2023-04-14T17:42:04.593Z,0.10
2023-04-14T17:44:33.257Z,0.10
2023-04-14T17:47:11.153Z,0.10
2023-04-14T17:49:38.345Z,0.10
2023-04-14T17:52:06.967Z,0.20
2023-04-14T17:54:34.139Z,0.10
2023-04-14T17:57:00.900Z,0.10
2023-04-14T17:59:27.997Z,0.10
2023-04-14T18:01:54.838Z,0.10
2023-04-14T18:04:21.755Z,0.20
2023-04-14T18:06:48.887Z,0.13
2023-04-14T18:09:15.852Z,0.10
2023-04-14T18:11:42.854Z,0.20
2023-04-14T18:14:09.580Z,0.10
2023-04-14T18:16:36.330Z,0.10
2023-04-14T18:19:03.521Z,0.10
2023-04-14T18:21:30.313Z,0.10
2023-04-14T18:26:27.205Z,0.10
2023-04-14T18:28:55.069Z,0.10
2023-04-14T18:31:21.861Z,0.20
2023-04-14T18:33:48.981Z,0.10
2023-04-14T18:36:15.728Z,0.30
2023-04-14T18:38:42.445Z,0.20
2023-04-14T18:41:10.265Z,0.20
2023-04-14T18:43:37.030Z,0.20
2023-04-14T18:46:03.990Z,0.30
2023-04-14T18:48:30.964Z,0.20
2023-04-14T18:51:01.619Z,0.10
2023-04-14T18:53:28.776Z,0.20
2023-04-14T18:55:55.684Z,0.20
2023-04-14T18:58:22.922Z,0.10
2023-04-14T19:00:49.711Z,0.30
2023-04-14T19:03:16.959Z,0.17
2023-04-14T19:05:44.094Z,0.20
2023-04-14T19:08:10.888Z,0.20
2023-04-14T19:10:37.723Z,0.20
2023-04-14T19:13:04.503Z,0.20
2023-04-14T19:15:31.324Z,0.10
2023-04-14T19:17:58.143Z,0.15
2023-04-14T19:20:25.388Z,0.10
2023-04-14T19:22:52.189Z,0.20
2023-04-14T19:25:21.791Z,0.30
2023-04-14T19:27:48.513Z,0.20
2023-04-14T19:30:15.256Z,0.28
2023-04-14T19:32:42.182Z,0.25
2023-04-14T19:35:10.031Z,0.28
2023-04-14T19:37:38.347Z,0.20
2023-04-14T19:40:06.572Z,0.10
2023-04-14T19:42:33.975Z,0.17
2023-04-14T19:45:01.138Z,0.10
2023-04-14T19:47:28.140Z,0.20
2023-04-14T19:49:55.324Z,0.20
2023-04-14T19:52:22.512Z,0.22
2023-04-14T19:54:49.721Z,0.10
2023-04-14T19:57:16.917Z,0.10
2023-04-14T19:59:44.324Z,0.10
2023-04-14T20:02:13.296Z,0.20
2023-04-14T20:04:40.639Z,0.20
2023-04-14T20:07:07.724Z,0.20
2023-04-14T20:09:34.755Z,0.20
2023-04-14T20:12:02.448Z,0.10
2023-04-14T20:14:29.415Z,0.10
2023-04-14T20:16:56.761Z,0.10
2023-04-14T20:19:24.424Z,0.20
2023-04-14T20:21:51.318Z,0.10
2023-04-14T20:24:18.744Z,0.10
2023-04-14T20:26:45.621Z,0.20
2023-04-14T20:29:12.969Z,0.20
2023-04-14T20:31:41.665Z,0.10
2023-04-14T20:34:09.145Z,0.20
2023-04-14T20:36:37.417Z,0.10
2023-04-14T20:39:06.016Z,0.10
2023-04-14T20:41:36.565Z,0.10
2023-04-14T20:44:04.546Z,0.20
2023-04-14T20:46:31.367Z,0.20
2023-04-14T20:48:58.206Z,0.10
2023-04-14T20:51:25.209Z,0.17
2023-04-14T20:53:51.983Z,0.20
2023-04-14T20:56:18.697Z,0.20
2023-04-14T20:58:45.783Z,0.10
2023-04-14T21:01:12.712Z,0.17
2023-04-14T21:03:39.749Z,0.20
2023-04-14T21:06:06.739Z,0.10
2023-04-14T21:08:33.558Z,0.20
2023-04-14T21:11:15.835Z,0.20
2023-04-14T21:15:26.437Z,0.25
2023-04-14T21:16:31.009Z,0.22
2023-04-14T21:18:57.826Z,0.30
2023-04-14T21:21:24.736Z,0.20
2023-04-14T21:23:51.491Z,0.30
2023-04-14T21:26:18.515Z,0.28
2023-04-14T21:28:45.740Z,0.10
2023-04-14T21:31:12.547Z,0.20
2023-04-14T21:33:41.585Z,0.20
2023-04-14T21:36:09.771Z,0.13
2023-04-14T21:38:37.847Z,0.10
2023-04-14T21:41:05.057Z,0.30
2023-04-14T21:43:32.593Z,0.20
2023-04-14T21:45:59.538Z,0.10
2023-04-14T21:48:26.470Z,0.28
2023-04-14T21:50:53.216Z,0.20
2023-04-14T21:53:20.759Z,0.20
2023-04-14T21:55:47.617Z,0.20
2023-04-14T21:58:34.284Z,0.20
2023-04-14T22:01:01.607Z,0.20
2023-04-14T22:03:28.618Z,0.20
2023-04-14T22:05:55.516Z,0.20
2023-04-14T22:08:23.656Z,0.30
2023-04-14T22:10:50.390Z,0.20
2023-04-14T22:13:17.186Z,0.20
2023-04-14T22:15:44.025Z,0.20
2023-04-14T22:18:11.572Z,0.30
2023-04-14T22:20:39.249Z,0.30
2023-04-14T22:23:06.102Z,0.30
2023-04-14T22:25:33.256Z,0.30
2023-04-14T22:28:00.007Z,0.20
2023-04-14T22:30:26.792Z,0.20
2023-04-14T22:32:53.736Z,0.30
2023-04-14T22:35:20.859Z,0.30
2023-04-14T22:37:47.895Z,0.22
2023-04-14T22:40:14.777Z,0.40
2023-04-14T22:42:41.890Z,0.30
2023-04-14T22:45:09.133Z,0.22
2023-04-14T22:47:36.316Z,0.30
2023-04-14T22:50:03.189Z,0.30
2023-04-14T22:52:30.712Z,0.32
2023-04-14T22:54:57.454Z,0.40
2023-04-14T22:57:24.301Z,0.35
2023-04-14T22:59:51.916Z,0.30
2023-04-14T23:02:18.894Z,0.30
2023-04-14T23:04:46.278Z,0.40
2023-04-14T23:07:13.621Z,0.30
2023-04-14T23:09:40.350Z,0.30
2023-04-14T23:12:07.200Z,0.20
2023-04-14T23:14:34.151Z,0.32
2023-04-14T23:17:00.942Z,0.28
2023-04-14T23:19:27.757Z,0.43
2023-04-14T23:21:54.544Z,0.30
2023-04-14T23:24:22.373Z,0.30
2023-04-14T23:26:49.253Z,0.30
2023-04-14T23:29:16.087Z,0.20
2023-04-14T23:31:42.865Z,0.38
2023-04-14T23:34:10.964Z,0.50
2023-04-14T23:36:38.003Z,0.52
2023-04-14T23:39:05.625Z,0.20
2023-04-14T23:41:32.579Z,0.55
2023-04-14T23:43:59.367Z,0.30
2023-04-14T23:46:26.483Z,0.40
2023-04-14T23:48:53.360Z,0.30
2023-04-14T23:51:22.464Z,0.40
2023-04-14T23:53:49.555Z,0.30
2023-04-14T23:56:16.507Z,0.40
2023-04-14T23:58:43.929Z,0.25
